createdAt,value
2022-12-15T00:00:23.758Z,100472.97
2022-12-15T00:01:14.090Z,100474.72
2022-12-15T00:02:04.124Z,100471.69
2022-12-15T00:02:54.255Z,100473.13
2022-12-15T00:03:44.459Z,100466.31
2022-12-15T00:04:34.700Z,100471.16
2022-12-15T00:05:24.964Z,100471.03
2022-12-15T00:06:14.773Z,100466.69
2022-12-15T00:07:04.611Z,100466.59
2022-12-15T00:07:54.692Z,100473.66
2022-12-15T00:08:44.801Z,100470.81
2022-12-15T00:09:36.609Z,100466.94
2022-12-15T00:10:26.758Z,100475.22
2022-12-15T00:11:20.468Z,100479.69
2022-12-15T00:12:10.980Z,100476.53
2022-12-15T00:13:00.942Z,100478.91
2022-12-15T00:13:51.017Z,100467.25
2022-12-15T00:14:40.950Z,100475.84
2022-12-15T00:15:30.910Z,100474.19
2022-12-15T00:16:21.088Z,100482.78
2022-12-15T00:17:11.130Z,100479.13
2022-12-15T00:18:01.092Z,100485.47
2022-12-15T00:18:51.624Z,100482.31
2022-12-15T00:19:41.326Z,100487.59
2022-12-15T00:20:31.518Z,100486.25
2022-12-15T00:21:21.520Z,100493.31
2022-12-15T00:22:11.483Z,100487.22
2022-12-15T00:23:01.601Z,100481.53
2022-12-15T00:23:51.645Z,100483.53
2022-12-15T00:24:41.714Z,100488.13
2022-12-15T00:25:31.701Z,100490.16
2022-12-15T00:26:22.342Z,100488.19
2022-12-15T00:27:12.242Z,100491.88
2022-12-15T00:28:02.454Z,100487.16
2022-12-15T00:28:52.654Z,100487.53
2022-12-15T00:29:42.802Z,100488.72
2022-12-15T00:30:34.690Z,100486.59
2022-12-15T00:31:24.989Z,100490.22
2022-12-15T00:32:14.974Z,100486.63
2022-12-15T00:33:04.878Z,100490.06
2022-12-15T00:33:54.879Z,100489.47
2022-12-15T00:34:45.082Z,100489.72
2022-12-15T00:35:35.405Z,100488.56
2022-12-15T00:36:25.830Z,100483.00
2022-12-15T00:37:15.839Z,100486.41
2022-12-15T00:38:05.863Z,100483.78
2022-12-15T00:38:44.288Z,100488.50
2022-12-15T00:39:15.919Z,100483.13
2022-12-15T00:39:58.510Z,100481.28
2022-12-15T00:40:30.125Z,100491.06
2022-12-15T00:41:01.850Z,100488.34
2022-12-15T00:41:33.386Z,100479.97
2022-12-15T00:42:04.914Z,100482.81
2022-12-15T00:42:36.573Z,100489.41
2022-12-15T00:43:12.057Z,100485.50
2022-12-15T00:43:44.137Z,100489.84
2022-12-15T00:44:20.603Z,100484.94
2022-12-15T00:44:52.762Z,100491.28
2022-12-15T00:45:44.249Z,100489.16
2022-12-15T00:46:34.316Z,100484.69
2022-12-15T00:47:06.146Z,100480.59
2022-12-15T00:47:37.784Z,100490.59
2022-12-15T00:48:09.305Z,100485.88
2022-12-15T00:48:41.532Z,100491.41
2022-12-15T00:49:39.155Z,100490.16
2022-12-15T00:50:29.039Z,100493.94
2022-12-15T00:51:00.583Z,100493.91
2022-12-15T00:51:50.738Z,100495.59
2022-12-15T00:52:41.050Z,100500.84
2022-12-15T00:53:31.345Z,100501.38
2022-12-15T00:54:21.859Z,100497.41
2022-12-15T00:55:11.790Z,100499.88
2022-12-15T00:56:01.854Z,100496.34
2022-12-15T00:56:52.006Z,100499.13
2022-12-15T00:57:41.902Z,100507.16
2022-12-15T00:58:31.750Z,100501.84
2022-12-15T00:59:22.135Z,100498.53
2022-12-15T01:00:12.129Z,100506.44
2022-12-15T01:01:02.429Z,100500.56
2022-12-15T01:01:52.487Z,100502.84
2022-12-15T01:02:43.135Z,100497.50
2022-12-15T01:03:37.765Z,100504.56
2022-12-15T01:04:28.081Z,100503.66
2022-12-15T01:05:18.052Z,100506.84
2022-12-15T01:06:08.220Z,100507.16
2022-12-15T01:06:58.016Z,100501.03
2022-12-15T01:07:49.888Z,100505.47
2022-12-15T01:08:40.415Z,100502.66
2022-12-15T01:09:31.368Z,100515.16
2022-12-15T01:10:22.401Z,100523.16
2022-12-15T01:11:12.626Z,100520.22
2022-12-15T01:12:03.208Z,100511.31
2022-12-15T01:12:53.189Z,100508.50
2022-12-15T01:13:43.094Z,100510.97
2022-12-15T01:14:39.750Z,100513.69
2022-12-15T01:15:29.746Z,100506.50
2022-12-15T01:16:19.695Z,100511.78
2022-12-15T01:17:09.758Z,100505.78
2022-12-15T01:18:00.067Z,100505.06
2022-12-15T01:18:52.366Z,100514.72
2022-12-15T01:19:43.919Z,100519.91
2022-12-15T01:20:18.291Z,100519.69
2022-12-15T01:21:04.918Z,100524.38
2022-12-15T01:21:36.569Z,100522.25
2022-12-15T01:22:08.160Z,100521.31
2022-12-15T01:22:39.872Z,100524.50
2022-12-15T01:23:11.427Z,100526.22
2022-12-15T01:23:43.047Z,100520.34
2022-12-15T01:24:14.562Z,100519.50
2022-12-15T01:24:46.134Z,100524.09
2022-12-15T01:25:19.091Z,100521.50
2022-12-15T01:25:52.220Z,100522.69
2022-12-15T01:26:23.724Z,100527.69
2022-12-15T01:26:55.227Z,100524.63
2022-12-15T01:27:26.746Z,100524.16
2022-12-15T01:27:58.508Z,100522.75
2022-12-15T01:28:30.140Z,100530.50
2022-12-15T01:29:01.780Z,100527.88
2022-12-15T01:29:33.353Z,100529.28
2022-12-15T01:30:06.867Z,100530.00
2022-12-15T01:30:38.826Z,100524.69
2022-12-15T01:31:11.880Z,100522.69
2022-12-15T01:31:44.121Z,100526.75
2022-12-15T01:32:15.746Z,100530.78
2022-12-15T01:32:47.325Z,100532.44
2022-12-15T01:33:19.671Z,100526.91
2022-12-15T01:33:54.883Z,100526.22
2022-12-15T01:34:26.422Z,100521.84
2022-12-15T01:34:58.140Z,100526.22
2022-12-15T01:35:29.772Z,100528.56
2022-12-15T01:36:01.957Z,100525.28
2022-12-15T01:36:33.456Z,100528.06
2022-12-15T01:37:05.167Z,100525.28
2022-12-15T01:37:37.085Z,100533.97
2022-12-15T01:38:08.912Z,100531.88
2022-12-15T01:38:40.406Z,100533.28
2022-12-15T01:39:12.417Z,100528.81
2022-12-15T01:40:02.614Z,100533.03
2022-12-15T01:40:46.871Z,100529.50
2022-12-15T01:41:18.594Z,100530.13
2022-12-15T01:41:50.285Z,100538.44
2022-12-15T01:42:21.927Z,100536.72
2022-12-15T01:42:53.484Z,100537.06
2022-12-15T01:43:31.435Z,100539.97
2022-12-15T01:44:17.515Z,100535.97
2022-12-15T01:44:53.334Z,100541.84
2022-12-15T01:45:24.818Z,100538.78
2022-12-15T01:45:58.083Z,100531.00
2022-12-15T01:46:29.899Z,100535.66
2022-12-15T01:47:01.487Z,100532.94
2022-12-15T01:47:33.172Z,100532.94
2022-12-15T01:48:07.026Z,100535.63
2022-12-15T01:48:44.378Z,100534.06
2022-12-15T01:49:20.419Z,100532.22
2022-12-15T01:49:54.162Z,100538.19
2022-12-15T01:50:26.436Z,100533.03
2022-12-15T01:51:10.325Z,100534.13
2022-12-15T01:51:44.996Z,100540.34
2022-12-15T01:52:17.014Z,100536.44
2022-12-15T01:52:49.584Z,100544.22
2022-12-15T01:53:21.450Z,100544.84
2022-12-15T01:54:11.093Z,100537.75
2022-12-15T01:55:03.061Z,100542.06
2022-12-15T01:55:35.011Z,100542.13
2022-12-15T01:56:08.385Z,100538.63
2022-12-15T01:56:43.092Z,100539.97
2022-12-15T01:57:28.910Z,100540.44
2022-12-15T01:58:03.808Z,100533.19
2022-12-15T01:58:36.269Z,100538.09
2022-12-15T01:59:10.731Z,100542.59
2022-12-15T01:59:50.827Z,100533.72
2022-12-15T02:00:22.470Z,100536.00
2022-12-15T02:00:54.206Z,100536.91
2022-12-15T02:01:25.990Z,100541.13
2022-12-15T02:01:57.786Z,100542.72
2022-12-15T02:02:32.390Z,100538.94
2022-12-15T02:03:07.601Z,100549.50
2022-12-15T02:03:39.768Z,100547.44
2022-12-15T02:04:11.645Z,100545.41
2022-12-15T02:04:43.560Z,100545.78
2022-12-15T02:05:15.067Z,100545.78
2022-12-15T02:05:47.263Z,100544.84
2022-12-15T02:06:21.636Z,100547.44
2022-12-15T02:06:53.249Z,100544.38
2022-12-15T02:07:24.781Z,100546.91
2022-12-15T02:07:56.389Z,100541.72
2022-12-15T02:08:28.583Z,100536.56
2022-12-15T02:09:00.778Z,100539.38
2022-12-15T02:09:32.395Z,100543.22
2022-12-15T02:10:07.356Z,100543.88
2022-12-15T02:10:57.244Z,100537.53
2022-12-15T02:11:45.124Z,100542.00
2022-12-15T02:12:35.434Z,100547.41
2022-12-15T02:13:09.978Z,100543.44
2022-12-15T02:13:54.467Z,100547.88
2022-12-15T02:14:35.422Z,100545.78
2022-12-15T02:15:09.462Z,100544.59
2022-12-15T02:15:51.271Z,100547.75
2022-12-15T02:16:53.327Z,100549.53
2022-12-15T02:17:49.273Z,100548.50
2022-12-15T02:18:43.468Z,100549.53
2022-12-15T02:19:51.602Z,100549.84
2022-12-15T02:21:20.125Z,100545.19
2022-12-15T02:21:54.453Z,100543.59
2022-12-15T02:22:25.952Z,100542.88
2022-12-15T02:23:25.452Z,100552.56
2022-12-15T02:24:19.647Z,100550.69
2022-12-15T02:25:33.231Z,100557.03
2022-12-15T02:26:30.710Z,100554.22
2022-12-15T02:27:12.834Z,100550.88
2022-12-15T02:28:02.731Z,100549.41
2022-12-15T02:29:01.764Z,100559.97
2022-12-15T02:30:04.454Z,100556.59
2022-12-15T02:30:40.357Z,100549.72
2022-12-15T02:31:50.980Z,100549.22
2022-12-15T02:32:28.094Z,100546.53
2022-12-15T02:33:11.364Z,100544.03
2022-12-15T02:33:52.188Z,100548.19
2022-12-15T02:34:38.468Z,100554.59
2022-12-15T02:35:17.096Z,100549.84
2022-12-15T02:35:54.444Z,100544.91
2022-12-15T02:36:29.762Z,100548.78
2022-12-15T02:37:08.422Z,100554.81
2022-12-15T02:37:40.328Z,100549.72
2022-12-15T02:38:12.087Z,100542.50
2022-12-15T02:38:44.982Z,100545.91
2022-12-15T02:39:18.272Z,100546.31
2022-12-15T02:39:49.820Z,100542.41
2022-12-15T02:40:21.417Z,100549.22
2022-12-15T02:41:03.881Z,100543.84
2022-12-15T02:41:37.336Z,100546.00
2022-12-15T02:42:11.856Z,100546.53
2022-12-15T02:42:46.280Z,100547.97
2022-12-15T02:43:17.799Z,100542.31
2022-12-15T02:43:49.869Z,100543.47
2022-12-15T02:44:38.731Z,100541.81
2022-12-15T02:45:13.339Z,100543.59
2022-12-15T02:46:09.412Z,100543.50
2022-12-15T02:46:49.950Z,100537.50
2022-12-15T02:47:27.034Z,100536.13
2022-12-15T02:48:12.440Z,100542.34
2022-12-15T02:49:06.983Z,100538.94
2022-12-15T02:49:49.776Z,100544.88
2022-12-15T02:50:33.450Z,100550.66
2022-12-15T02:51:19.818Z,100551.22
2022-12-15T02:52:02.592Z,100546.06
2022-12-15T02:52:56.262Z,100545.66
2022-12-15T02:53:52.295Z,100542.56
2022-12-15T02:54:34.551Z,100544.75
2022-12-15T02:55:06.085Z,100542.81
2022-12-15T02:55:41.414Z,100544.97
2022-12-15T02:56:32.546Z,100541.16
2022-12-15T02:57:13.118Z,100543.00
2022-12-15T02:58:26.154Z,100542.19
2022-12-15T02:59:11.220Z,100539.03
2022-12-15T02:59:55.442Z,100542.88
2022-12-15T03:00:28.223Z,100543.88
2022-12-15T03:01:04.381Z,100543.59
2022-12-15T03:01:58.609Z,100552.09
2022-12-15T03:02:31.736Z,100546.47
2022-12-15T03:03:03.791Z,100551.69
2022-12-15T03:03:36.472Z,100556.38
2022-12-15T03:04:09.525Z,100552.84
2022-12-15T03:04:42.787Z,100555.88
2022-12-15T03:05:15.699Z,100554.50
2022-12-15T03:05:54.726Z,100549.59
2022-12-15T03:06:26.663Z,100555.72
2022-12-15T03:07:01.400Z,100558.75
2022-12-15T03:07:33.278Z,100552.16
2022-12-15T03:08:04.906Z,100557.28
2022-12-15T03:08:36.469Z,100557.72
2022-12-15T03:09:08.145Z,100554.03
2022-12-15T03:09:39.703Z,100553.59
2022-12-15T03:10:13.661Z,100556.47
2022-12-15T03:10:45.259Z,100553.38
2022-12-15T03:11:16.784Z,100553.94
2022-12-15T03:11:48.335Z,100563.38
2022-12-15T03:12:19.933Z,100557.81
2022-12-15T03:12:51.950Z,100563.00
2022-12-15T03:13:24.305Z,100562.25
2022-12-15T03:13:55.918Z,100561.69
2022-12-15T03:14:27.433Z,100556.50
2022-12-15T03:14:58.932Z,100569.53
2022-12-15T03:15:35.287Z,100562.28
2022-12-15T03:16:07.651Z,100564.97
2022-12-15T03:16:39.273Z,100567.03
2022-12-15T03:17:10.937Z,100557.38
2022-12-15T03:17:42.474Z,100561.84
2022-12-15T03:18:14.163Z,100557.09
2022-12-15T03:18:47.327Z,100560.63
2022-12-15T03:19:19.247Z,100561.44
2022-12-15T03:19:50.749Z,100563.38
2022-12-15T03:20:22.227Z,100563.47
2022-12-15T03:20:53.746Z,100562.69
2022-12-15T03:21:25.431Z,100578.22
2022-12-15T03:21:56.970Z,100569.41
2022-12-15T03:22:28.752Z,100569.38
2022-12-15T03:23:01.857Z,100571.91
2022-12-15T03:23:34.130Z,100569.16
2022-12-15T03:24:06.144Z,100576.03
2022-12-15T03:24:37.711Z,100573.53
2022-12-15T03:25:09.476Z,100568.09
2022-12-15T03:25:41.008Z,100580.44
2022-12-15T03:26:12.560Z,100573.81
2022-12-15T03:26:44.099Z,100571.56
2022-12-15T03:27:15.782Z,100560.63
2022-12-15T03:27:47.510Z,100576.53
2022-12-15T03:28:19.170Z,100571.25
2022-12-15T03:28:50.715Z,100575.09
2022-12-15T03:29:22.406Z,100570.16
2022-12-15T03:29:53.924Z,100572.19
2022-12-15T03:30:25.518Z,100571.63
2022-12-15T03:30:57.044Z,100569.75
2022-12-15T03:31:28.577Z,100573.50
2022-12-15T03:32:00.543Z,100571.84
2022-12-15T03:32:32.271Z,100572.66
2022-12-15T03:33:03.857Z,100574.44
2022-12-15T03:33:35.523Z,100577.63
2022-12-15T03:34:07.330Z,100582.59
2022-12-15T03:34:38.823Z,100579.81
2022-12-15T03:35:10.702Z,100583.41
2022-12-15T03:35:42.282Z,100581.97
2022-12-15T03:36:13.805Z,100581.66
2022-12-15T03:36:45.598Z,100585.09
2022-12-15T03:37:17.142Z,100588.41
2022-12-15T03:37:48.665Z,100581.38
2022-12-15T03:38:21.396Z,100584.66
2022-12-15T03:38:52.901Z,100584.19
2022-12-15T03:39:24.386Z,100580.94
2022-12-15T03:39:56.807Z,100584.41
2022-12-15T03:40:28.328Z,100581.59
2022-12-15T03:40:59.822Z,100589.28
2022-12-15T03:41:31.358Z,100590.22
2022-12-15T03:42:03.003Z,100592.00
2022-12-15T03:42:49.887Z,100587.03
2022-12-15T03:43:21.422Z,100589.84
2022-12-15T03:43:52.949Z,100581.69
2022-12-15T03:44:24.774Z,100582.63
2022-12-15T03:44:56.283Z,100587.28
2022-12-15T03:45:28.782Z,100585.19
2022-12-15T03:46:00.557Z,100585.38
2022-12-15T03:46:32.089Z,100589.13
2022-12-15T03:47:04.074Z,100585.59
2022-12-15T03:47:35.751Z,100584.28
2022-12-15T03:48:07.268Z,100589.84
2022-12-15T03:48:38.830Z,100580.66
2022-12-15T03:49:10.348Z,100579.94
2022-12-15T03:49:41.831Z,100580.66
2022-12-15T03:50:16.136Z,100583.63
2022-12-15T03:50:49.206Z,100582.38
2022-12-15T03:51:21.246Z,100580.84
2022-12-15T03:51:53.861Z,100581.06
2022-12-15T03:52:25.644Z,100584.28
2022-12-15T03:53:01.266Z,100585.38
2022-12-15T03:53:33.239Z,100585.28
2022-12-15T03:54:04.989Z,100583.00
2022-12-15T03:54:36.575Z,100580.00
2022-12-15T03:55:08.894Z,100583.63
2022-12-15T03:55:40.423Z,100584.97
2022-12-15T03:56:11.925Z,100579.28
2022-12-15T03:56:43.487Z,100580.31
2022-12-15T03:57:14.986Z,100583.22
2022-12-15T03:57:46.482Z,100579.44
2022-12-15T03:58:17.976Z,100589.50
2022-12-15T03:58:49.481Z,100592.31
2022-12-15T03:59:21.100Z,100593.25
2022-12-15T03:59:52.638Z,100592.31
2022-12-15T04:00:27.443Z,100590.88
2022-12-15T04:00:59.078Z,100590.66
2022-12-15T04:01:32.889Z,100595.00
2022-12-15T04:02:04.671Z,100591.00
2022-12-15T04:02:36.387Z,100592.72
2022-12-15T04:03:10.415Z,100591.59
2022-12-15T04:03:42.012Z,100590.06
2022-12-15T04:04:13.543Z,100597.91
2022-12-15T04:04:45.126Z,100589.66
2022-12-15T04:05:23.272Z,100590.25
2022-12-15T04:05:54.786Z,100590.69
2022-12-15T04:06:26.504Z,100595.66
2022-12-15T04:06:58.028Z,100591.91
2022-12-15T04:07:29.547Z,100598.03
2022-12-15T04:08:01.773Z,100589.72
2022-12-15T04:08:33.276Z,100594.41
2022-12-15T04:09:04.785Z,100599.56
2022-12-15T04:09:36.912Z,100597.50
2022-12-15T04:10:10.809Z,100599.56
2022-12-15T04:10:43.631Z,100598.22
2022-12-15T04:11:15.287Z,100590.00
2022-12-15T04:11:46.819Z,100596.72
2022-12-15T04:12:18.471Z,100587.94
2022-12-15T04:12:56.856Z,100594.75
2022-12-15T04:13:28.682Z,100595.34
2022-12-15T04:14:00.498Z,100593.38
2022-12-15T04:14:32.083Z,100595.69
2022-12-15T04:15:03.874Z,100596.66
2022-12-15T04:15:37.027Z,100594.47
2022-12-15T04:16:08.865Z,100591.06
2022-12-15T04:16:40.600Z,100594.59
2022-12-15T04:17:12.537Z,100592.53
2022-12-15T04:17:44.197Z,100596.88
2022-12-15T04:18:15.710Z,100599.78
2022-12-15T04:19:07.878Z,100596.69
2022-12-15T04:19:57.811Z,100594.59
2022-12-15T04:20:29.692Z,100596.66
2022-12-15T04:21:01.212Z,100592.13
2022-12-15T04:21:32.732Z,100592.44
2022-12-15T04:22:04.234Z,100601.03
2022-12-15T04:22:40.470Z,100603.91
2022-12-15T04:23:12.182Z,100604.75
2022-12-15T04:24:02.494Z,100604.94
2022-12-15T04:24:52.515Z,100605.78
2022-12-15T04:26:01.205Z,100611.56
2022-12-15T04:26:51.111Z,100611.78
2022-12-15T04:27:40.835Z,100605.38
2022-12-15T04:28:31.687Z,100609.22
2022-12-15T04:29:21.695Z,100606.28
2022-12-15T04:30:11.715Z,100607.22
2022-12-15T04:31:04.994Z,100612.59
2022-12-15T04:31:55.086Z,100620.25
2022-12-15T04:32:45.002Z,100615.09
2022-12-15T04:33:40.327Z,100614.66
2022-12-15T04:34:33.376Z,100619.22
2022-12-15T04:35:23.874Z,100619.91
2022-12-15T04:36:14.107Z,100616.53
2022-12-15T04:37:05.959Z,100610.00
2022-12-15T04:37:55.892Z,100608.66
2022-12-15T04:38:50.277Z,100609.28
2022-12-15T04:39:41.270Z,100604.13
2022-12-15T04:40:31.305Z,100600.41
2022-12-15T04:41:21.325Z,100607.41
2022-12-15T04:42:13.002Z,100602.97
2022-12-15T04:43:04.969Z,100605.47
2022-12-15T04:43:55.034Z,100604.31
2022-12-15T04:44:45.647Z,100599.34
2022-12-15T04:45:41.883Z,100604.41
2022-12-15T04:46:31.859Z,100597.16
2022-12-15T04:47:22.418Z,100599.66
2022-12-15T04:48:12.394Z,100606.97
2022-12-15T04:49:02.286Z,100606.91
2022-12-15T04:49:52.539Z,100604.09
2022-12-15T04:50:42.718Z,100604.41
2022-12-15T04:51:32.890Z,100611.13
2022-12-15T04:52:23.012Z,100604.19
2022-12-15T04:53:13.285Z,100604.41
2022-12-15T04:54:04.098Z,100605.66
2022-12-15T04:54:54.168Z,100610.72
2022-12-15T04:55:44.297Z,100604.19
2022-12-15T04:56:35.304Z,100609.09
2022-12-15T04:57:25.377Z,100612.16
2022-12-15T04:58:15.629Z,100604.63
2022-12-15T04:59:06.771Z,100616.53
2022-12-15T04:59:56.641Z,100603.41
2022-12-15T05:00:46.737Z,100607.63
2022-12-15T05:01:36.827Z,100612.81
2022-12-15T05:02:27.195Z,100611.38
2022-12-15T05:03:23.742Z,100608.16
2022-12-15T05:04:13.813Z,100605.97
2022-12-15T05:05:04.044Z,100607.22
2022-12-15T05:05:54.295Z,100608.66
2022-12-15T05:06:44.392Z,100609.69
2022-12-15T05:07:34.335Z,100610.22
2022-12-15T05:08:24.493Z,100600.59
2022-12-15T05:09:14.568Z,100610.72
2022-12-15T05:10:08.262Z,100613.09
2022-12-15T05:11:01.191Z,100609.09
2022-12-15T05:11:51.382Z,100607.84
2022-12-15T05:12:41.640Z,100606.78
2022-12-15T05:13:32.097Z,100610.09
2022-12-15T05:14:22.620Z,100613.63
2022-12-15T05:15:12.697Z,100611.34
2022-12-15T05:16:02.954Z,100615.59
2022-12-15T05:16:53.139Z,100620.66
2022-12-15T05:17:43.429Z,100610.09
2022-12-15T05:18:33.789Z,100618.41
2022-12-15T05:19:23.976Z,100614.28
2022-12-15T05:20:14.048Z,100612.50
2022-12-15T05:21:04.241Z,100605.06
2022-12-15T05:21:54.118Z,100617.16
2022-12-15T05:22:44.172Z,100604.84
2022-12-15T05:23:34.425Z,100607.41
2022-12-15T05:24:24.868Z,100609.88
2022-12-15T05:25:14.881Z,100603.91
2022-12-15T05:26:04.944Z,100605.25
2022-12-15T05:26:54.918Z,100602.25
2022-12-15T05:27:44.893Z,100604.63
2022-12-15T05:28:35.105Z,100613.53
2022-12-15T05:29:25.188Z,100609.78
2022-12-15T05:30:15.017Z,100611.94
2022-12-15T05:31:05.111Z,100609.06
2022-12-15T05:31:52.218Z,100611.78
2022-12-15T05:32:23.781Z,100613.75
2022-12-15T05:32:55.410Z,100602.97
2022-12-15T05:33:26.998Z,100616.75
2022-12-15T05:34:04.686Z,100609.50
2022-12-15T05:34:38.173Z,100612.38
2022-12-15T05:35:09.692Z,100610.94
2022-12-15T05:35:41.396Z,100614.25
2022-12-15T05:36:12.955Z,100613.22
2022-12-15T05:36:44.443Z,100611.16
2022-12-15T05:37:15.973Z,100612.16
2022-12-15T05:37:47.467Z,100611.34
2022-12-15T05:38:18.965Z,100608.97
2022-12-15T05:38:51.750Z,100618.19
2022-12-15T05:39:24.804Z,100612.38
2022-12-15T05:39:56.342Z,100614.66
2022-12-15T05:40:27.888Z,100612.19
2022-12-15T05:41:00.065Z,100621.28
2022-12-15T05:41:31.674Z,100614.97
2022-12-15T05:42:03.567Z,100616.09
2022-12-15T05:42:35.099Z,100614.28
2022-12-15T05:43:06.832Z,100621.50
2022-12-15T05:43:38.337Z,100611.59
2022-12-15T05:44:10.329Z,100619.44
2022-12-15T05:44:41.842Z,100621.09
2022-12-15T05:45:13.464Z,100623.97
2022-12-15T05:45:44.967Z,100615.81
2022-12-15T05:46:16.519Z,100617.47
2022-12-15T05:46:48.458Z,100621.50
2022-12-15T05:47:20.020Z,100622.50
2022-12-15T05:47:52.618Z,100619.94
2022-12-15T05:48:24.145Z,100616.22
2022-12-15T05:48:55.765Z,100624.59
2022-12-15T05:49:27.353Z,100615.91
2022-12-15T05:49:58.967Z,100622.31
2022-12-15T05:50:30.708Z,100620.16
2022-12-15T05:51:10.393Z,100620.25
2022-12-15T05:51:43.260Z,100622.31
2022-12-15T05:52:14.827Z,100622.09
2022-12-15T05:52:49.514Z,100630.16
2022-12-15T05:53:21.427Z,100622.91
2022-12-15T05:53:52.951Z,100623.34
2022-12-15T05:54:24.498Z,100630.59
2022-12-15T05:54:56.129Z,100632.84
2022-12-15T05:55:27.824Z,100633.69
2022-12-15T05:56:10.599Z,100643.41
2022-12-15T05:56:42.433Z,100631.94
2022-12-15T05:57:13.966Z,100636.56
2022-12-15T05:57:52.205Z,100639.66
2022-12-15T05:58:23.735Z,100643.41
2022-12-15T05:58:58.568Z,100642.88
2022-12-15T05:59:30.118Z,100644.00
2022-12-15T06:00:01.994Z,100643.28
2022-12-15T06:00:43.252Z,100646.28
2022-12-15T06:01:16.578Z,100642.97
2022-12-15T06:01:48.263Z,100648.34
2022-12-15T06:02:20.012Z,100640.81
2022-12-15T06:02:51.629Z,100649.56
2022-12-15T06:03:23.406Z,100645.34
2022-12-15T06:03:54.978Z,100648.13
2022-12-15T06:04:26.584Z,100644.41
2022-12-15T06:04:58.265Z,100649.41
2022-12-15T06:05:29.794Z,100649.78
2022-12-15T06:06:02.525Z,100651.97
2022-12-15T06:06:34.315Z,100651.34
2022-12-15T06:07:05.832Z,100652.06
2022-12-15T06:07:37.461Z,100654.31
2022-12-15T06:08:09.175Z,100651.44
2022-12-15T06:08:42.008Z,100658.69
2022-12-15T06:09:13.774Z,100659.81
2022-12-15T06:09:45.825Z,100659.69
2022-12-15T06:10:17.457Z,100665.19
2022-12-15T06:10:55.130Z,100667.28
2022-12-15T06:11:27.007Z,100659.94
2022-12-15T06:11:58.559Z,100658.09
2022-12-15T06:12:30.127Z,100667.69
2022-12-15T06:13:01.852Z,100659.94
2022-12-15T06:13:37.079Z,100665.94
2022-12-15T06:14:09.324Z,100654.78
2022-12-15T06:14:41.031Z,100665.94
2022-12-15T06:15:12.587Z,100659.84
2022-12-15T06:15:44.201Z,100655.41
2022-12-15T06:16:16.936Z,100663.66
2022-12-15T06:16:49.952Z,100665.53
2022-12-15T06:17:22.291Z,100661.56
2022-12-15T06:17:55.872Z,100662.72
2022-12-15T06:18:33.887Z,100667.50
2022-12-15T06:19:05.403Z,100662.63
2022-12-15T06:19:36.964Z,100669.50
2022-12-15T06:20:09.019Z,100666.00
2022-12-15T06:20:40.614Z,100666.31
2022-12-15T06:21:17.994Z,100666.66
2022-12-15T06:21:49.515Z,100660.84
2022-12-15T06:22:21.533Z,100662.13
2022-12-15T06:22:53.056Z,100664.91
2022-12-15T06:23:25.197Z,100671.94
2022-12-15T06:23:57.722Z,100667.56
2022-12-15T06:24:29.237Z,100675.06
2022-12-15T06:25:00.833Z,100671.53
2022-12-15T06:25:32.338Z,100663.03
2022-12-15T06:26:18.915Z,100665.81
2022-12-15T06:26:50.463Z,100669.97
2022-12-15T06:27:22.168Z,100666.56
2022-12-15T06:27:59.935Z,100666.75
2022-12-15T06:28:33.397Z,100674.84
2022-12-15T06:29:08.554Z,100668.94
2022-12-15T06:29:40.132Z,100665.75
2022-12-15T06:30:12.045Z,100665.09
2022-12-15T06:30:43.653Z,100665.81
2022-12-15T06:31:17.626Z,100671.53
2022-12-15T06:31:49.372Z,100666.75
2022-12-15T06:32:21.357Z,100668.41
2022-12-15T06:32:54.861Z,100672.84
2022-12-15T06:33:26.376Z,100674.44
2022-12-15T06:34:02.016Z,100674.00
2022-12-15T06:34:34.020Z,100681.25
2022-12-15T06:35:06.018Z,100675.34
2022-12-15T06:35:38.653Z,100678.25
2022-12-15T06:36:14.628Z,100683.03
2022-12-15T06:36:46.262Z,100683.19
2022-12-15T06:37:17.829Z,100678.13
2022-12-15T06:37:49.315Z,100684.34
2022-12-15T06:38:20.899Z,100681.97
2022-12-15T06:38:52.855Z,100673.38
2022-12-15T06:39:24.510Z,100682.50
2022-12-15T06:39:56.018Z,100686.94
2022-12-15T06:40:27.788Z,100681.56
2022-12-15T06:41:00.179Z,100688.91
2022-12-15T06:41:32.280Z,100682.41
2022-12-15T06:42:03.882Z,100685.06
2022-12-15T06:42:35.409Z,100682.19
2022-12-15T06:43:07.837Z,100687.88
2022-12-15T06:43:39.613Z,100689.94
2022-12-15T06:44:15.844Z,100691.19
2022-12-15T06:44:47.422Z,100688.81
2022-12-15T06:45:21.526Z,100689.34
2022-12-15T06:45:53.129Z,100692.44
2022-12-15T06:46:26.831Z,100686.25
2022-12-15T06:46:58.402Z,100694.31
2022-12-15T06:47:29.938Z,100688.31
2022-12-15T06:48:01.951Z,100686.00
2022-12-15T06:48:33.618Z,100690.47
2022-12-15T06:49:05.311Z,100682.72
2022-12-15T06:49:36.834Z,100691.81
2022-12-15T06:50:08.915Z,100694.69
2022-12-15T06:50:41.455Z,100692.09
2022-12-15T06:51:17.094Z,100689.13
2022-12-15T06:51:49.819Z,100690.78
2022-12-15T06:52:21.460Z,100693.47
2022-12-15T06:52:52.982Z,100691.50
2022-12-15T06:53:24.581Z,100690.16
2022-12-15T06:53:56.433Z,100692.84
2022-12-15T06:54:28.189Z,100690.56
2022-12-15T06:54:59.882Z,100693.69
2022-12-15T06:55:31.418Z,100694.00
2022-12-15T06:56:04.963Z,100693.56
2022-12-15T06:56:36.817Z,100692.34
2022-12-15T06:57:08.411Z,100693.28
2022-12-15T06:57:40.098Z,100695.75
2022-12-15T06:58:12.471Z,100692.97
2022-12-15T06:58:43.976Z,100693.25
2022-12-15T06:59:15.545Z,100692.22
2022-12-15T06:59:47.108Z,100686.94
2022-12-15T07:00:19.048Z,100687.03
2022-12-15T07:00:50.986Z,100696.75
2022-12-15T07:01:24.288Z,100702.66
2022-12-15T07:01:56.145Z,100706.69
2022-12-15T07:02:30.152Z,100702.25
2022-12-15T07:03:01.923Z,100705.25
2022-12-15T07:03:35.134Z,100706.38
2022-12-15T07:04:07.269Z,100709.91
2022-12-15T07:04:38.893Z,100703.19
2022-12-15T07:05:10.466Z,100704.00
2022-12-15T07:05:43.457Z,100704.72
2022-12-15T07:06:16.254Z,100712.69
2022-12-15T07:06:47.792Z,100705.44
2022-12-15T07:07:19.332Z,100701.53
2022-12-15T07:07:52.335Z,100708.16
2022-12-15T07:08:30.336Z,100705.88
2022-12-15T07:09:03.797Z,100705.59
2022-12-15T07:09:35.380Z,100705.75
2022-12-15T07:10:07.188Z,100712.69
2022-12-15T07:10:43.122Z,100706.91
2022-12-15T07:11:14.891Z,100704.31
2022-12-15T07:11:49.287Z,100706.06
2022-12-15T07:12:20.801Z,100708.88
2022-12-15T07:12:52.321Z,100705.25
2022-12-15T07:13:24.274Z,100708.03
2022-12-15T07:13:55.836Z,100700.50
2022-12-15T07:14:27.419Z,100699.97
2022-12-15T07:14:59.169Z,100704.66
2022-12-15T07:15:31.436Z,100697.81
2022-12-15T07:16:05.259Z,100700.06
2022-12-15T07:16:36.951Z,100700.69
2022-12-15T07:17:10.885Z,100700.06
2022-12-15T07:17:42.576Z,100700.06